Sawyer, North Dakota
Current Conditions -  °F | °C
As of 2:54 PM on Friday 19 Dec 2014 (Local Time) from KMOT Reporting Station
Haze Haze  
Wind Chill: 27°   Ceiling: 300
Heat Index: 27°   Visibility: 3mi
Dew Point: 25°   Wind: 0mph
Humidity: 92%   Direction: NA
Pressure: 29.92"   Gusts: NA
Location:  48.09°N, 101.05°W
Report Text: KMOT 192054Z 00000KT 3SM BR OVC003 M03/M04 A2992 RMK AO2 SLP156 T10281039 55003
Loading
Personal Weather Stations






























Interactive Weather Map New forecast layout! Learn more

10-Day Weather Forecast

Advertisements
Track Severe Weather on mobile